Terminal Aerodrome Forecast
Issued by NWS

Home | Current Version | Previous Version | Text Only | Print | Product List | Glossary On
Versions: 1 2 3 4 5 6 7 8 9 10 11 12 13 14 15 16 17
000
FTUS46 KLOX 012358
TAFSBA
TAF
KSBA 012358Z 0200/0224 24008KT P6SM SCT100
     FM020200 19007KT P6SM SCT012
     FM020900 VRB03KT P6SM OVC012
     FM021600 15005KT P6SM BKN015 BKN250
     FM022000 24009KT P6SM FEW015 BKN250=

USA.gov is the U.S. government's official web portal to all federal, state and local government web resources and services.